Time;durP1;ratioP1;P1;durP2;ratioP2;P2;SDS_P1;SDS_P2;PMS_P1;PMS_P2;Temp;Humidity;BMP_temperature;BMP_pressure;BME280_temperature;BME280_humidity;BME280_pressure;Samples;Min_cycle;Max_cycle;Signal;HPM_P1;HPM_P2
2023/03/10 00:01:36;;;;;;;;;5.75;4.50;;;;;14.41;58.72;100506.31;146625;579;45020;-72
2023/03/10 00:04:29;;;;;;;;;5.75;5.00;;;;;14.25;58.87;100510.16;146621;648;45914;-72
2023/03/10 00:07:49;;;;;;;;;5.00;5.00;;;;;14.12;59.88;100513.22;146621;639;46010;-71
2023/03/10 00:10:47;;;;;;;;;7.50;6.25;;;;;14.00;59.64;100518.87;146617;571;48012;-71
2023/03/10 00:13:42;;;;;;;;;5.50;4.50;;;;;13.90;60.08;100510.72;146624;575;45021;-70
2023/03/10 00:16:54;;;;;;;;;5.00;3.50;;;;;12.79;59.14;100334.03;146620;632;45016;-70
2023/03/10 00:19:56;;;;;;;;;7.25;6.75;;;;;13.74;60.22;100510.19;146623;585;45020;-72
2023/03/10 00:22:59;;;;;;;;;7.00;4.50;;;;;13.67;61.70;100505.56;146621;575;45910;-70
2023/03/10 00:26:08;;;;;;;;;7.50;5.00;;;;;13.52;60.62;100500.72;146625;575;45020;-69
2023/03/10 00:29:06;;;;;;;;;5.25;4.25;;;;;13.45;62.03;100501.31;146621;597;45918;-69
2023/03/10 00:32:07;;;;;;;;;8.00;5.50;;;;;13.43;62.23;100503.00;146625;684;45020;-71
2023/03/10 00:35:09;;;;;;;;;5.75;5.75;;;;;13.38;61.67;100500.22;146621;621;45916;-70
2023/03/10 00:38:30;;;;;;;;;7.00;5.00;;;;;11.90;60.24;100240.66;146626;664;45020;-71
2023/03/10 00:41:27;;;;;;;;;4.00;4.00;;;;;13.39;62.19;100496.78;146622;611;45018;-71
2023/03/10 00:44:26;;;;;;;;;5.25;4.00;;;;;13.39;61.00;100499.41;146625;610;45021;-73
2023/03/10 00:47:27;;;;;;;;;6.00;6.00;;;;;13.34;61.61;100503.53;146622;619;45912;-73
2023/03/10 00:50:27;;;;;;;;;4.50;4.50;;;;;13.24;62.13;100504.00;146625;712;45020;-73
2023/03/10 00:53:26;;;;;;;;;8.00;6.50;;;;;13.17;62.47;100500.28;146621;650;45911;-72
2023/03/10 00:56:40;;;;;;;;;5.75;5.75;;;;;13.14;62.64;100507.09;146625;590;45020;-72
2023/03/10 00:59:46;;;;;;;;;6.25;4.25;;;;;13.14;62.43;100512.28;146623;632;45912;-73
2023/03/10 01:02:45;;;;;;;;;8.00;7.00;;;;;13.13;63.00;100508.81;146627;583;45020;-72
2023/03/10 01:05:38;;;;;;;;;11.50;8.75;;;;;13.11;63.49;100517.38;146623;601;45017;-73
2023/03/10 01:08:53;;;;;;;;;8.00;7.00;;;;;13.07;63.61;100512.91;146626;579;45020;-71
2023/03/10 01:12:10;;;;;;;;;10.00;7.00;;;;;12.96;63.02;100515.09;146619;566;47013;-69
2023/03/10 01:15:28;;;;;;;;;5.50;5.25;;;;;12.92;64.55;100513.19;146627;624;45020;-70
2023/03/10 01:18:42;;;;;;;;;6.25;5.00;;;;;12.73;63.93;100498.59;146622;635;45914;-71
2023/03/10 01:21:45;;;;;;;;;5.25;5.25;;;;;12.81;63.97;100519.72;146621;639;45027;-71
2023/03/10 01:24:49;;;;;;;;;3.00;3.00;;;;;12.81;64.42;100511.91;146621;606;45914;-71
2023/03/10 01:27:54;;;;;;;;;3.50;3.00;;;;;12.78;64.57;100510.06;146625;639;46010;-70
2023/03/10 01:30:57;;;;;;;;;2.50;2.25;;;;;12.79;64.61;100518.75;146624;642;45016;-70
2023/03/10 01:34:20;;;;;;;;;3.50;3.25;;;;;10.99;63.62;100206.69;146625;607;45021;-70
2023/03/10 01:37:37;;;;;;;;;4.00;4.00;;;;;11.84;64.31;100353.78;146622;682;45028;-70
2023/03/10 01:40:56;;;;;;;;;9.50;9.50;;;;;12.82;64.33;100517.16;146625;574;45020;-69
2023/03/10 01:43:58;;;;;;;;;8.00;8.00;;;;;12.82;64.32;100506.75;146618;594;46016;-68
2023/03/10 01:47:11;;;;;;;;;8.00;6.25;;;;;12.85;64.63;100512.06;146626;692;45020;-69
2023/03/10 01:50:11;;;;;;;;;6.25;4.25;;;;;12.82;65.30;100506.75;146621;578;45031;-69
2023/03/10 01:53:22;;;;;;;;;2.50;2.25;;;;;12.74;63.85;100508.19;146620;573;45020;-69
2023/03/10 01:56:35;;;;;;;;;3.75;3.25;;;;;12.69;65.39;100502.78;146621;584;46012;-71
2023/03/10 01:59:45;;;;;;;;;4.25;2.75;;;;;12.65;65.47;100508.72;146626;569;45020;-69
2023/03/10 02:03:07;;;;;;;;;3.00;2.00;;;;;12.65;65.56;100521.72;146619;631;45914;-68
2023/03/10 02:06:28;;;;;;;;;5.75;4.50;;;;;11.58;64.86;100340.62;146622;675;45021;-67
2023/03/10 02:09:50;;;;;;;;;3.75;2.25;;;;;11.54;65.28;100341.34;146619;580;46016;-68
2023/03/10 02:13:07;;;;;;;;;2.00;2.00;;;;;12.52;66.47;100518.56;146625;703;45021;-67
2023/03/10 02:16:33;;;;;;;;;1.75;1.75;;;;;10.60;64.62;100186.06;146620;635;45913;-67
2023/03/10 02:20:20;;;;;;;;;1.00;1.00;;;;;12.47;65.60;100500.19;146624;571;46010;-69
2023/03/10 02:23:38;;;;;;;;;5.25;2.00;;;;;12.43;67.09;100512.19;146620;625;45911;-69
2023/03/10 02:27:07;;;;;;;;;1.75;1.50;;;;;12.41;64.74;100516.41;146616;661;45020;-68
2023/03/10 02:30:40;;;;;;;;;1.50;1.50;;;;;11.32;64.50;100324.87;146620;564;45913;-67
2023/03/10 02:33:42;;;;;;;;;2.00;1.00;;;;;12.35;66.58;100512.69;146625;583;45022;-69
2023/03/10 02:36:37;;;;;;;;;2.50;1.75;;;;;12.35;67.51;100500.56;146620;597;45914;-69
2023/03/10 02:39:34;;;;;;;;;2.25;1.25;;;;;12.36;66.79;100498.84;146624;629;45030;-70
2023/03/10 02:42:34;;;;;;;;;3.00;2.00;;;;;12.39;66.91;100499.84;146621;573;47014;-70
2023/03/10 02:45:31;;;;;;;;;3.75;3.00;;;;;12.43;66.22;100501.78;146625;610;45020;-71
2023/03/10 02:48:45;;;;;;;;;2.25;1.25;;;;;12.50;65.79;100502.91;146619;651;45914;-70
2023/03/10 02:51:54;;;;;;;;;2.75;2.00;;;;;12.56;65.42;100504.87;146625;570;45020;-71
2023/03/10 02:54:49;;;;;;;;;1.00;1.00;;;;;12.63;65.67;100512.06;146621;637;45914;-71
2023/03/10 02:58:02;;;;;;;;;2.25;2.25;;;;;12.67;65.18;100509.62;146622;708;46010;-68
2023/03/10 03:01:04;;;;;;;;;1.75;1.00;;;;;12.73;64.88;100511.59;146621;676;45914;-68
2023/03/10 03:04:06;;;;;;;;;1.25;1.25;;;;;12.71;65.00;100513.28;146620;564;47010;-71
2023/03/10 03:07:14;;;;;;;;;2.00;2.00;;;;;12.63;64.16;100499.94;146621;588;45920;-70
2023/03/10 03:10:09;;;;;;;;;4.00;2.75;;;;;12.62;65.14;100499.91;146623;716;45029;-67
2023/03/10 03:13:37;;;;;;;;;5.25;3.50;;;;;11.54;64.88;100310.19;146621;578;45912;-67
2023/03/10 03:16:42;;;;;;;;;2.50;2.50;;;;;12.58;65.75;100490.19;146624;711;45020;-67
2023/03/10 03:19:52;;;;;;;;;1.50;1.50;;;;;12.58;65.06;100491.06;146619;686;46914;-70
2023/03/10 03:23:03;;;;;;;;;1.25;1.25;;;;;12.55;65.90;100492.66;146625;703;45020;-71
2023/03/10 03:26:18;;;;;;;;;2.75;1.00;;;;;12.48;65.11;100495.03;146622;564;45913;-72
2023/03/10 03:29:18;;;;;;;;;2.75;2.00;;;;;12.45;66.92;100501.81;146621;578;45020;-70
2023/03/10 03:32:21;;;;;;;;;1.50;1.50;;;;;12.40;67.33;100493.84;146619;616;46012;-72
2023/03/10 03:35:26;;;;;;;;;3.25;2.25;;;;;12.35;67.60;100477.16;146626;563;45050;-72
2023/03/10 03:38:34;;;;;;;;;5.00;4.00;;;;;12.31;68.27;100477.87;146621;594;45914;-72
2023/03/10 03:41:43;;;;;;;;;5.25;4.25;;;;;12.25;69.88;100462.91;146623;571;47010;-69
2023/03/10 03:44:47;;;;;;;;;3.75;2.75;;;;;11.24;68.15;100278.66;146623;571;45030;-69
2023/03/10 03:47:55;;;;;;;;;2.50;2.50;;;;;12.39;68.11;100466.06;146627;576;45020;-68
2023/03/10 03:50:47;;;;;;;;;2.00;0.75;;;;;12.46;67.55;100449.88;146619;684;46014;-68
2023/03/10 03:53:52;;;;;;;;;5.50;4.00;;;;;12.55;66.60;100453.66;146623;577;45020;-70
2023/03/10 03:56:55;;;;;;;;;0.50;0.25;;;;;11.63;65.21;100278.50;146623;594;45016;-69
2023/03/10 03:59:54;;;;;;;;;3.25;3.25;;;;;12.74;65.81;100465.66;146620;648;45020;-69
2023/03/10 04:03:13;;;;;;;;;5.75;5.00;;;;;11.76;64.23;100279.03;146619;575;45913;-70
2023/03/10 04:06:23;;;;;;;;;;;;;;;;;;;;;
2023/03/10 04:09:19;;;;;;;;;9.00;8.25;;;;;12.86;65.62;100467.00;146620;594;45914;-69
2023/03/10 04:12:36;;;;;;;;;6.75;4.00;;;;;10.94;64.12;100135.59;146624;650;45021;-68
2023/03/10 04:15:41;;;;;;;;;8.00;6.75;;;;;12.81;65.51;100463.34;146622;631;45916;-69
2023/03/10 04:18:52;;;;;;;;;6.50;5.50;;;;;12.82;65.71;100456.44;146624;590;45021;-70
2023/03/10 04:22:03;;;;;;;;;10.00;8.00;;;;;12.83;66.34;100455.59;146619;649;45916;-69
2023/03/10 04:25:05;;;;;;;;;9.25;8.00;;;;;12.85;65.09;100444.44;146624;643;45021;-69
2023/03/10 04:28:07;;;;;;;;;9.00;7.00;;;;;12.90;65.50;100455.91;146621;570;45943;-71
2023/03/10 04:31:31;;;;;;;;;9.75;8.00;;;;;12.90;65.85;100440.28;146619;600;46010;-68
2023/03/10 04:34:27;;;;;;;;;13.50;11.00;;;;;12.83;66.22;100437.37;146621;612;45916;-69
2023/03/10 04:37:43;;;;;;;;;11.25;7.75;;;;;12.77;66.79;100435.44;146618;570;46012;-69
2023/03/10 04:40:38;;;;;;;;;8.25;7.00;;;;;12.68;66.35;100437.72;146618;572;45914;-68
2023/03/10 04:43:53;;;;;;;;;7.75;6.00;;;;;11.56;65.23;100249.69;146623;603;45020;-67
2023/03/10 04:47:06;;;;;;;;;;;;;;;;;;;;;
2023/03/10 04:50:16;;;;;;;;;5.25;4.75;;;;;11.96;67.17;100349.09;146627;617;45023;-67
2023/03/10 04:53:18;;;;;;;;;5.50;5.25;;;;;12.51;67.75;100425.75;146622;605;45916;-71
2023/03/10 04:56:18;;;;;;;;;8.00;5.75;;;;;12.51;67.53;100420.56;146625;579;46007;-71
2023/03/10 04:59:16;;;;;;;;;7.25;6.75;;;;;12.52;68.11;100417.13;146619;670;45912;-71
2023/03/10 05:02:19;;;;;;;;;12.00;9.50;;;;;12.50;68.39;100414.47;146624;625;45020;-71
2023/03/10 05:05:17;;;;;;;;;15.00;14.00;;;;;12.54;68.90;100416.37;146618;593;46016;-69
2023/03/10 05:08:14;;;;;;;;;8.50;8.00;;;;;12.60;68.28;100423.53;146625;573;45020;-66
2023/03/10 05:11:22;;;;;;;;;6.00;6.00;;;;;12.69;67.85;100423.87;146620;612;46014;-67
2023/03/10 05:14:24;;;;;;;;;7.00;6.50;;;;;12.83;67.12;100429.56;146625;618;45020;-66
2023/03/10 05:17:31;;;;;;;;;8.00;7.25;;;;;12.95;67.45;100441.31;146621;579;45914;-67
2023/03/10 05:20:33;;;;;;;;;6.50;6.00;;;;;13.08;67.39;100439.19;146621;563;45020;-67
2023/03/10 05:23:45;;;;;;;;;;;;;;;;;;;;;
2023/03/10 05:26:46;;;;;;;;;7.00;5.00;;;;;13.92;65.30;100421.28;146625;564;45050;-67
2023/03/10 05:29:53;;;;;;;;;6.50;5.00;;;;;13.15;62.79;100246.84;146620;580;45913;-69
2023/03/10 05:32:52;;;;;;;;;5.00;4.00;;;;;14.30;63.32;100408.62;146624;687;45021;-67
2023/03/10 05:36:15;;;;;;;;;6.00;4.00;;;;;14.42;61.72;100408.97;146621;594;45016;-67
2023/03/10 05:39:28;;;;;;;;;8.00;7.75;;;;;14.53;62.17;100419.78;146624;610;45021;-68
2023/03/10 05:42:45;;;;;;;;;12.75;11.00;;;;;13.57;61.78;100253.41;146619;607;45912;-68
2023/03/10 05:45:57;;;;;;;;;13.25;11.25;;;;;13.41;61.69;100236.41;146624;612;45020;-67
2023/03/10 05:48:56;;;;;;;;;12.25;11.75;;;;;14.50;62.66;100433.56;146620;592;45912;-68
2023/03/10 05:52:20;;;;;;;;;14.50;11.25;;;;;13.58;61.66;100266.50;146621;579;46010;-67
2023/03/10 05:55:18;;;;;;;;;17.75;12.25;;;;;14.80;63.40;100445.81;146620;578;45910;-68
2023/03/10 05:58:16;;;;;;;;;18.50;15.75;;;;;15.04;63.07;100439.53;146624;605;45043;-69
2023/03/10 06:01:33;;;;;;;;;13.00;10.00;;;;;15.37;62.40;100456.16;146615;627;47013;-69
2023/03/10 06:04:46;;;;;;;;;7.25;6.00;;;;;15.75;62.05;100455.44;146625;586;45020;-68
2023/03/10 06:07:45;;;;;;;;;6.75;6.75;;;;;16.17;59.46;100451.28;146621;613;45018;-72
2023/03/10 06:10:42;;;;;;;;;7.50;5.75;;;;;16.39;58.13;100454.41;146626;602;45020;-70
2023/03/10 06:13:41;;;;;;;;;6.75;6.00;;;;;16.45;58.85;100451.94;146621;660;45911;-69
2023/03/10 06:16:52;;;;;;;;;7.00;7.00;;;;;16.63;59.14;100454.06;146625;569;45039;-70
2023/03/10 06:19:48;;;;;;;;;9.00;8.00;;;;;16.83;57.34;100446.69;146619;565;47016;-70
2023/03/10 06:22:49;;;;;;;;;9.25;7.75;;;;;16.95;57.46;100448.69;146625;577;45020;-72
2023/03/10 06:26:05;;;;;;;;;9.75;8.25;;;;;17.09;57.33;100455.09;146621;619;45917;-69
2023/03/10 06:29:12;;;;;;;;;7.00;7.00;;;;;17.30;56.34;100473.00;146624;644;45020;-70
2023/03/10 06:32:26;;;;;;;;;7.00;6.50;;;;;17.51;55.97;100467.28;146618;578;45017;-67
2023/03/10 06:35:51;;;;;;;;;8.00;7.75;;;;;17.78;54.68;100473.03;146624;594;45020;-69
2023/03/10 06:38:57;;;;;;;;;9.25;6.25;;;;;17.11;53.59;100300.56;146619;667;45914;-70
2023/03/10 06:41:57;;;;;;;;;8.00;7.00;;;;;18.22;53.73;100474.66;146623;702;45020;-68
2023/03/10 06:45:02;;;;;;;;;6.50;6.50;;;;;18.39;53.52;100464.44;146618;605;45016;-68
2023/03/10 06:48:16;;;;;;;;;10.00;7.75;;;;;16.93;53.03;100178.91;146626;574;45021;-75
2023/03/10 06:51:21;;;;;;;;;20.75;18.25;;;;;18.70;53.90;100452.66;146620;563;45916;-71
2023/03/10 06:54:17;;;;;;;;;12.00;10.75;;;;;18.91;53.13;100446.84;146624;578;45021;-74
2023/03/10 06:57:32;;;;;;;;;;;;;;;;;;;;;
2023/03/10 07:00:42;;;;;;;;;14.75;11.00;;;;;19.35;53.38;100428.09;146623;570;45022;-68
2023/03/10 07:03:44;;;;;;;;;9.50;7.75;;;;;19.57;52.54;100426.56;146612;662;46012;-69
2023/03/10 07:06:52;;;;;;;;;;;;;;;;;;;;;
2023/03/10 07:10:17;;;;;;;;;12.50;10.75;;;;;19.83;51.10;100427.69;146618;586;45914;-71
2023/03/10 07:13:27;;;;;;;;;16.00;14.00;;;;;18.87;50.36;100279.50;146616;574;45020;-72
2023/03/10 07:16:45;;;;;;;;;;;;;;;;;;;;;
2023/03/10 07:19:54;;;;;;;;;15.75;12.50;;;;;19.63;50.54;100434.50;146618;575;45020;-69
2023/03/10 07:23:11;;;;;;;;;7.25;7.25;;;;;19.65;50.50;100424.00;146615;565;45914;-68
2023/03/10 07:26:11;;;;;;;;;7.00;6.50;;;;;19.74;50.73;100418.84;146625;569;45020;-70
2023/03/10 07:29:19;;;;;;;;;16.25;15.50;;;;;19.92;51.12;100423.37;146620;576;45914;-69
2023/03/10 07:32:27;;;;;;;;;20.75;18.50;;;;;20.01;53.09;100426.09;146617;606;45021;-70
2023/03/10 07:35:32;;;;;;;;;19.00;15.75;;;;;19.09;53.05;100260.44;146613;613;45913;-70
2023/03/10 07:38:33;;;;;;;;;17.25;15.00;;;;;19.98;53.43;100412.91;146616;633;45020;-68
2023/03/10 07:41:40;;;;;;;;;17.00;14.00;;;;;20.02;53.92;100401.53;146611;623;45913;-67
2023/03/10 07:44:44;;;;;;;;;14.75;12.75;;;;;19.99;53.66;100385.72;146617;586;45020;-67
2023/03/10 07:47:37;;;;;;;;;14.75;14.00;;;;;19.98;53.59;100378.69;146615;712;45017;-68
2023/03/10 07:50:29;;;;;;;;;10.75;10.50;;;;;20.05;54.39;100381.38;146618;608;45020;-67
2023/03/10 07:53:39;;;;;;;;;10.00;10.00;;;;;20.19;52.96;100385.87;146612;576;47017;-68
2023/03/10 07:56:35;;;;;;;;;1.33;1.33;;;;;20.38;48.60;100390.38;146620;631;45020;-68
2023/03/10 07:59:50;;;;;;;;;3.33;3.33;;;;;20.54;51.08;100386.09;146621;573;45914;-68
2023/03/10 08:03:03;;;;;;;;;5.50;5.25;;;;;20.73;51.45;100380.03;146638;697;44020;-66
2023/03/10 08:05:56;;;;;;;;;6.75;6.75;;;;;20.90;49.86;100385.41;146636;582;45913;-66
2023/03/10 08:08:56;;;;;;;;;16.75;14.75;;;;;20.98;51.90;100394.19;146633;591;46010;-66
2023/03/10 08:12:00;;;;;;;;;13.00;11.25;;;;;20.93;52.92;100390.69;146637;615;45913;-66
2023/03/10 08:14:55;;;;;;;;;8.50;8.50;;;;;20.86;51.15;100386.25;146640;678;44021;-68
2023/03/10 08:17:49;;;;;;;;;10.00;8.00;;;;;20.80;49.85;100382.72;146635;604;45914;-68
2023/03/10 08:20:55;;;;;;;;;6.33;6.33;;;;;20.73;50.26;100379.16;146640;578;44020;-68
2023/03/10 08:23:57;;;;;;;;;7.00;7.00;;;;;20.67;51.25;100387.03;146635;590;45914;-67
2023/03/10 08:27:03;;;;;;;;;9.00;8.00;;;;;20.65;52.11;100389.66;146638;627;45010;-67
2023/03/10 08:30:02;;;;;;;;;10.00;9.00;;;;;20.62;53.16;100384.38;146637;589;45914;-68
2023/03/10 08:33:26;;;;;;;;;;;;;;;;;;;;;
2023/03/10 08:36:31;;;;;;;;;9.25;7.50;;;;;20.54;51.88;100386.09;146637;587;45913;-69
2023/03/10 08:39:36;;;;;;;;;8.00;7.00;;;;;20.34;52.45;100380.69;146639;643;45010;-68
2023/03/10 08:42:45;;;;;;;;;7.75;7.75;;;;;20.09;49.89;100379.63;146637;574;44916;-70
2023/03/10 08:46:06;;;;;;;;;9.00;8.50;;;;;18.13;51.18;100091.41;146640;648;45010;-68
2023/03/10 08:49:12;;;;;;;;;7.00;6.00;;;;;19.73;52.27;100381.12;146639;623;44034;-69
2023/03/10 08:52:06;;;;;;;;;7.75;7.75;;;;;19.95;52.02;100384.81;146640;570;44021;-68
2023/03/10 08:55:23;;;;;;;;;7.00;5.00;;;;;20.26;49.74;100382.41;146639;580;44915;-68
2023/03/10 08:58:40;;;;;;;;;9.00;8.00;;;;;20.40;49.83;100380.72;146640;571;44020;-68
2023/03/10 09:01:44;;;;;;;;;7.33;7.00;;;;;20.55;49.40;100382.59;146625;565;45014;-67
2023/03/10 09:05:12;;;;;;;;;7.67;6.67;;;;;19.68;48.94;100206.59;146626;690;45020;-67
2023/03/10 09:08:29;;;;;;;;;;;;;;;;;;;;;
2023/03/10 09:11:50;;;;;;;;;8.00;6.33;;;;;20.28;49.88;100352.59;146626;640;45022;-67
2023/03/10 09:14:54;;;;;;;;;8.25;7.25;;;;;19.41;50.59;100209.91;146620;674;46013;-68
2023/03/10 09:18:03;;;;;;;;;;;;;;;;;;;;;
2023/03/10 09:21:08;;;;;;;;;6.00;6.00;;;;;20.59;51.20;100341.34;146622;646;45912;-70
2023/03/10 09:24:12;;;;;;;;;8.00;5.75;;;;;20.82;50.17;100329.16;146622;620;46010;-69
2023/03/10 09:27:20;;;;;;;;;6.50;6.00;;;;;21.06;50.26;100322.16;146620;648;45016;-71
2023/03/10 09:30:54;;;;;;;;;7.25;6.75;;;;;20.38;50.48;100149.88;146624;574;45021;-70
2023/03/10 09:33:51;;;;;;;;;7.25;6.25;;;;;21.50;48.89;100311.72;146620;657;45912;-69
2023/03/10 09:36:55;;;;;;;;;6.00;3.00;;;;;21.66;48.49;100310.81;146628;646;45020;-70
2023/03/10 09:39:53;;;;;;;;;8.25;6.25;;;;;21.88;48.82;100308.16;146621;657;45915;-70
2023/03/10 09:43:21;;;;;;;;;8.00;6.00;;;;;22.11;47.72;100314.25;146625;563;45020;-70
2023/03/10 09:46:26;;;;;;;;;6.00;6.00;;;;;22.34;47.11;100311.59;146621;602;46016;-70
2023/03/10 09:50:36;;;;;;;;;6.00;5.00;;;;;22.52;46.84;100315.03;146625;616;45020;-71
2023/03/10 09:54:13;;;;;;;;;6.00;6.00;;;;;22.58;46.25;100329.09;146621;592;45914;-71
2023/03/10 09:57:31;;;;;;;;;5.33;5.33;;;;;21.74;45.81;100180.63;146626;563;46012;-70
2023/03/10 10:01:15;;;;;;;;;12.50;10.00;;;;;21.64;45.93;100179.78;146618;657;46012;-70
2023/03/10 10:04:48;;;;;;;;;11.50;11.00;;;;;20.96;46.94;100142.03;146616;564;45020;-70
2023/03/10 10:07:54;;;;;;;;;9.33;8.67;;;;;21.90;47.82;100323.12;146618;629;45018;-71
2023/03/10 10:10:59;;;;;;;;;6.00;6.00;;;;;21.74;46.50;100324.00;146624;573;46010;-71
2023/03/10 10:14:21;;;;;;;;;4.00;4.00;;;;;21.56;47.21;100314.34;146623;586;45915;-71
2023/03/10 10:18:01;;;;;;;;;3.33;3.00;;;;;21.49;47.39;100319.59;146623;601;45020;-70
2023/03/10 10:21:25;;;;;;;;;5.00;3.00;;;;;20.77;48.07;100178.06;146619;601;47013;-70
2023/03/10 10:24:54;;;;;;;;;3.67;3.67;;;;;21.80;47.29;100315.19;146627;602;45023;-70
2023/03/10 10:28:17;;;;;;;;;6.33;4.00;;;;;21.99;46.30;100310.75;146622;688;45018;-70
2023/03/10 10:31:39;;;;;;;;;4.00;4.00;;;;;20.61;47.11;100037.56;146627;567;45022;-69
2023/03/10 10:35:02;;;;;;;;;3.33;3.00;;;;;22.35;45.95;100292.22;146623;571;45914;-70
2023/03/10 10:38:37;;;;;;;;;3.67;3.67;;;;;21.71;46.65;100141.06;146627;604;45021;-70
2023/03/10 10:41:57;;;;;;;;;6.00;5.00;;;;;22.70;46.53;100280.59;146622;646;45020;-70
2023/03/10 10:45:01;;;;;;;;;7.00;6.67;;;;;22.87;48.21;100288.44;146625;604;45023;-72
2023/03/10 10:48:21;;;;;;;;;8.00;5.00;;;;;23.16;47.01;100283.00;146624;563;45916;-70
2023/03/10 10:51:40;;;;;;;;;4.33;4.33;;;;;22.66;45.64;100148.50;146623;693;45021;-70
2023/03/10 10:54:57;;;;;;;;;1.00;0.33;;;;;23.52;44.58;100286.25;146624;596;45910;-69
2023/03/10 10:58:13;;;;;;;;;;;;;;;;;;;;;
2023/03/10 11:01:33;;;;;;;;;4.33;3.00;;;;;23.26;44.15;100284.66;146624;668;45019;-69
2023/03/10 11:04:53;;;;;;;;;3.67;3.67;;;;;23.05;45.55;100271.59;146626;617;45024;-69
2023/03/10 11:07:49;;;;;;;;;7.33;7.33;;;;;22.93;43.52;100259.34;146623;581;45914;-70
2023/03/10 11:11:10;;;;;;;;;6.67;6.67;;;;;22.68;45.77;100247.13;146626;642;45020;-70
2023/03/10 11:14:42;;;;;;;;;6.33;5.33;;;;;22.36;44.25;100234.97;146622;565;45914;-70
2023/03/10 11:18:01;;;;;;;;;5.67;5.00;;;;;22.07;44.66;100240.34;146626;574;45020;-71
2023/03/10 11:21:27;;;;;;;;;6.00;5.67;;;;;21.94;46.55;100226.31;146622;572;45915;-69
2023/03/10 11:25:09;;;;;;;;;4.67;4.00;;;;;20.32;46.30;99942.75;146623;579;46008;-71
2023/03/10 11:28:45;;;;;;;;;4.67;3.67;;;;;20.33;46.29;99938.34;146617;590;47914;-71
2023/03/10 11:32:37;;;;;;;;;4.00;4.00;;;;;21.72;44.55;100199.13;146627;604;45020;-70
2023/03/10 11:36:09;;;;;;;;;6.00;5.00;;;;;21.38;47.35;100167.53;146622;580;45914;-70
2023/03/10 11:39:54;;;;;;;;;9.33;7.00;;;;;21.48;48.17;100178.06;146627;644;45022;-71
2023/03/10 11:43:56;;;;;;;;;4.00;3.00;;;;;21.11;47.13;100019.91;146622;628;45016;-69
2023/03/10 11:47:45;;;;;;;;;6.67;6.33;;;;;21.35;44.99;99980.28;146626;659;45020;-71
2023/03/10 11:50:59;;;;;;;;;5.00;4.00;;;;;22.59;42.90;100156.47;146622;566;45915;-71
2023/03/10 11:54:36;;;;;;;;;5.67;4.00;;;;;22.61;43.79;100135.31;146627;579;45020;-71
2023/03/10 11:57:31;;;;;;;;;6.00;4.00;;;;;22.31;41.45;100128.50;146619;573;45914;-71
2023/03/10 12:00:39;;;;;;;;;7.00;4.00;;;;;21.87;43.26;100119.03;146622;578;45021;-71
2023/03/10 12:04:21;;;;;;;;;3.00;2.67;;;;;20.39;45.19;99914.66;146624;621;45916;-71
2023/03/10 12:07:52;;;;;;;;;3.00;2.00;;;;;21.45;44.17;100110.34;146625;582;45023;-70
2023/03/10 12:10:51;;;;;;;;;5.00;2.33;;;;;21.24;43.11;100116.53;146620;577;45016;-70
2023/03/10 12:14:28;;;;;;;;;3.00;2.00;;;;;21.14;44.12;100105.13;146625;566;45021;-71
2023/03/10 12:17:26;;;;;;;;;7.67;6.00;;;;;21.07;45.52;100094.59;146623;588;45016;-70
2023/03/10 12:20:38;;;;;;;;;5.33;5.00;;;;;20.99;45.94;100099.88;146622;567;45044;-71
2023/03/10 12:23:55;;;;;;;;;4.00;4.00;;;;;20.98;46.49;100091.09;146619;569;46012;-71
2023/03/10 12:27:17;;;;;;;;;8.50;7.75;;;;;21.08;46.20;100091.06;146623;573;45021;-72
2023/03/10 12:31:06;;;;;;;;;6.50;6.00;;;;;19.56;46.70;99818.22;146621;571;46918;-70
2023/03/10 12:34:23;;;;;;;;;8.00;6.50;;;;;21.09;44.67;100082.28;146624;613;45020;-70
2023/03/10 12:37:38;;;;;;;;;7.00;7.00;;;;;21.07;45.65;100086.69;146618;664;45915;-73
2023/03/10 12:41:05;;;;;;;;;6.33;6.33;;;;;20.97;45.15;100083.19;146625;587;45020;-72
2023/03/10 12:44:35;;;;;;;;;9.00;7.75;;;;;19.97;45.18;99917.31;146622;578;45017;-71
2023/03/10 12:48:12;;;;;;;;;12.50;11.00;;;;;19.67;46.18;99886.59;146625;599;45020;-72
2023/03/10 12:51:36;;;;;;;;;10.00;9.50;;;;;20.65;46.00;100063.00;146613;631;45913;-74
2023/03/10 12:55:04;;;;;;;;;11.00;9.25;;;;;20.64;45.91;100065.66;146618;563;46010;-73
2023/03/10 12:58:51;;;;;;;;;9.75;9.00;;;;;20.63;47.25;100048.97;146621;569;45912;-73
2023/03/10 13:01:52;;;;;;;;;8.25;8.25;;;;;20.61;46.60;100055.97;146624;682;45020;-71
2023/03/10 13:05:23;;;;;;;;;10.75;9.25;;;;;20.60;45.88;100063.91;146620;686;45917;-69
2023/03/10 13:08:53;;;;;;;;;8.50;7.75;;;;;20.61;46.95;100049.84;146620;743;46008;-67
2023/03/10 13:12:08;;;;;;;;;10.00;9.00;;;;;20.65;45.87;100051.59;146621;627;45909;-68
2023/03/10 13:15:25;;;;;;;;;12.75;8.75;;;;;20.75;46.03;100046.34;146624;588;45020;-69
2023/03/10 13:18:25;;;;;;;;;9.00;7.25;;;;;20.85;45.40;100030.50;146619;683;46912;-67
2023/03/10 13:21:55;;;;;;;;;8.00;4.33;;;;;20.11;45.76;99876.97;146624;594;46012;-70
2023/03/10 13:25:17;;;;;;;;;9.50;9.50;;;;;20.92;44.77;100019.94;146616;676;46010;-70
2023/03/10 13:28:18;;;;;;;;;9.25;8.25;;;;;20.88;45.37;100027.88;146622;664;47023;-72
2023/03/10 13:31:39;;;;;;;;;9.00;8.25;;;;;20.90;45.33;100020.81;146626;708;45918;-70
2023/03/10 13:34:41;;;;;;;;;5.00;5.00;;;;;20.89;44.49;100013.81;146622;663;46012;-72
2023/03/10 13:38:19;;;;;;;;;9.00;5.00;;;;;20.94;45.13;100019.94;146620;657;46012;-71
2023/03/10 13:41:15;;;;;;;;;5.67;4.67;;;;;20.97;45.44;100012.91;146621;573;45020;-73
2023/03/10 13:44:46;;;;;;;;;;;;;;;;;;;;;
2023/03/10 13:48:00;;;;;;;;;;;;;;;;;;;;;
2023/03/10 13:51:36;;;;;;;;;8.33;6.00;;;;;21.09;46.01;99990.00;146625;581;45017;-71
2023/03/10 13:54:59;;;;;;;;;6.00;5.00;;;;;21.11;44.58;99990.91;146627;625;45020;-73
2023/03/10 13:58:10;;;;;;;;;10.00;8.33;;;;;21.10;45.22;99986.53;146622;564;45917;-74
2023/03/10 14:01:38;;;;;;;;;12.25;11.25;;;;;20.06;44.80;99798.91;146625;565;45020;-73
2023/03/10 14:05:08;;;;;;;;;7.00;7.00;;;;;21.26;46.49;99987.34;146616;587;45916;-72
2023/03/10 14:08:42;;;;;;;;;11.25;8.75;;;;;19.76;46.27;99707.75;146627;584;45020;-72
2023/03/10 14:12:06;;;;;;;;;12.25;10.25;;;;;21.43;46.11;99964.41;146617;628;45913;-73
2023/03/10 14:15:11;;;;;;;;;7.00;7.00;;;;;21.47;44.22;99954.75;146615;602;47020;-73
2023/03/10 14:18:42;;;;;;;;;7.50;7.25;;;;;21.35;45.99;99948.66;146620;567;45916;-72
2023/03/10 14:22:02;;;;;;;;;9.00;7.75;;;;;21.30;44.99;99953.03;146626;581;45048;-71
2023/03/10 14:25:22;;;;;;;;;6.00;6.00;;;;;20.48;46.00;99804.03;146621;635;47012;-72
2023/03/10 14:28:35;;;;;;;;;9.00;7.00;;;;;21.32;47.10;99943.34;146625;564;45021;-72
2023/03/10 14:31:45;;;;;;;;;6.50;6.50;;;;;21.41;47.33;99939.84;146620;681;46031;-72
2023/03/10 14:35:04;;;;;;;;;8.33;6.00;;;;;19.94;46.72;99666.50;146625;577;45021;-73
2023/03/10 14:38:06;;;;;;;;;12.50;10.00;;;;;21.58;45.93;99926.53;146620;665;45909;-72
2023/03/10 14:41:06;;;;;;;;;10.00;10.00;;;;;21.59;46.31;99921.25;146618;569;45021;-74
2023/03/10 14:44:20;;;;;;;;;9.00;8.00;;;;;20.72;46.94;99774.13;146610;563;46012;-73
2023/03/10 14:47:25;;;;;;;;;6.50;6.50;;;;;21.63;46.13;99919.47;146621;630;45020;-73
2023/03/10 14:50:50;;;;;;;;;;;;;;;;;;;;;
2023/03/10 14:54:02;;;;;;;;;13.50;11.00;;;;;20.80;46.65;99759.13;146624;563;45022;-72
2023/03/10 14:57:28;;;;;;;;;14.50;11.75;;;;;21.63;47.31;99907.16;146614;599;46014;-72
2023/03/10 15:00:25;;;;;;;;;16.00;13.50;;;;;21.59;47.85;99915.13;146617;613;45020;-71
2023/03/10 15:03:20;;;;;;;;;11.75;11.75;;;;;21.55;47.22;99918.63;146616;573;45035;-72
2023/03/10 15:06:24;;;;;;;;;16.00;13.75;;;;;21.49;46.75;99902.84;146620;674;45020;-71
2023/03/10 15:09:28;;;;;;;;;12.75;12.00;;;;;21.46;46.78;99916.94;146613;588;45018;-72
2023/03/10 15:12:44;;;;;;;;;8.25;8.00;;;;;20.56;47.15;99775.94;146618;566;45021;-71